• Join FlightAware (Why Join?)
  • Login
  • US Flag 
01:59PM EST


 

Airport Tracker/Info


-or-


 

Live Flight TrackerFlight Track Log ✈ UAL4457 ✈ 04-May-2013 ✈ KLEX - KIAH

Flight Track Log - Related Links

Times and Time Zones

All times are in EDT time to prevent confusion due to time zone crossing. See the UAL4457 flight status page for this flight to view local times or setup timezone preferences in your user account.

Time Position Orientation Groundspeed Altitude Reporting Facility
EDT Latitude Longitude Course Direction KTS MPH feet Rate Location/Type
05:31PM 37.9750 -84.6731 221° Southwest 217 250 4,300  Level Indianapolis Center
05:33PM 37.9408 -84.7364 236° Southwest 225 259 7,000 2,820 Climbing Indianapolis Center
05:34PM 37.8450 -85.0600 238° Southwest  Level FlightAware Approximate
05:34PM 37.9269 -84.8322 260° West 240 276 10,200  Level Indianapolis Center
05:35PM 37.8020 -85.1775 247° West  Level FlightAware Approximate
05:35PM 37.9294 -84.9228 272° West 252 290 11,500  Level Indianapolis Center
05:36PM 37.7566 -85.2936 241° Southwest  Level FlightAware Approximate
05:36PM 37.9108 -85.0386 259° West 321 369 12,500  Level Indianapolis Center
05:37PM 37.8664 -85.1514 243° Southwest 349 402 13,600 1,260 Climbing Indianapolis Center
05:38PM 37.8169 -85.2700 242° Southwest 373 429 15,200 1,920 Climbing Indianapolis Center
05:39PM 37.7681 -85.3903 243° Southwest 381 438 17,600 2,340 Climbing Indianapolis Center
05:40PM 37.7222 -85.5036 243° Southwest 369 425 20,000 2,040 Climbing Indianapolis Center
05:41PM 37.6711 -85.6250 242° Southwest 373 429 21,800 1,560 Climbing Indianapolis Center
05:42PM 37.6228 -85.7458 243° Southwest 383 441 23,300 1,560 Climbing Indianapolis Center
05:43PM 37.5708 -85.8694 242° Southwest 392 451 25,000 1,680 Climbing Indianapolis Center
05:44PM 37.5189 -85.9931 242° Southwest 395 455 26,800 1,860 Climbing Indianapolis Center
05:45PM 37.4592 -86.1358 242° Southwest 392 451 28,900 1,860 Climbing Indianapolis Center
05:46PM 37.4075 -86.2569 242° Southwest 390 449 30,700 1,740 Climbing Indianapolis Center
05:47PM 37.3481 -86.4044 243° Southwest 397 457 32,800 1,500 Climbing Memphis Center
05:48PM 37.2975 -86.5189 241° Southwest 392 451 34,100 1,140 Climbing Memphis Center
05:49PM 37.2469 -86.6414 243° Southwest 398 458 35,200 900 Climbing Memphis Center
05:50PM 37.1922 -86.7636 241° Southwest 398 458 36,000 360 Climbing Memphis Center
05:51PM 37.1375 -86.8911 242° Southwest 410 472 36,000  Level Memphis Center
05:52PM 37.0808 -87.0261 242° Southwest 433 498 36,000  Level Memphis Center
05:53PM 37.0219 -87.1636 242° Southwest 449 517 36,000  Level Memphis Center
05:54PM 36.9631 -87.3011 242° Southwest 449 517 36,000  Level Memphis Center
05:55PM 36.9136 -87.4169 242° Southwest 444 511 36,000  Level Memphis Center
05:56PM 36.8561 -87.5461 241° Southwest 438 504 36,000  Level Memphis Center
05:57PM 36.7967 -87.6806 241° Southwest 438 504 36,000  Level Memphis Center
05:58PM 36.7369 -87.8169 241° Southwest 444 511 36,000  Level Memphis Center
05:59PM 36.6772 -87.9483 240° Southwest 444 511 36,000  Level Memphis Center
06:00PM 36.6192 -88.0869 242° Southwest 444 511 36,000  Level Memphis Center
06:01PM 36.5531 -88.2311 240° Southwest 444 511 36,000  Level Memphis Center
06:02PM 36.4947 -88.3617 241° Southwest 439 505 36,000  Level Memphis Center
06:03PM 36.4344 -88.4947 241° Southwest 439 505 36,000  Level Memphis Center
06:04PM 36.3758 -88.6250 241° Southwest 445 512 36,000  Level Memphis Center
06:05PM 36.3169 -88.7497 240° Southwest 435 501 36,000  Level Memphis Center
06:06PM 36.2561 -88.8797 240° Southwest 435 501 36,000  Level Memphis Center
06:07PM 36.1972 -89.0094 241° Southwest 435 501 36,000  Level Memphis Center
06:08PM 36.1481 -89.1156 240° Southwest 435 501 36,000  Level Memphis Center
06:09PM 36.0808 -89.2603 240° Southwest 440 506 36,000  Level Memphis Center
06:10PM 36.0214 -89.3894 240° Southwest 440 506 36,000  Level Memphis Center
06:11PM 35.9619 -89.5183 240° Southwest 440 506 36,000  Level Memphis Center
06:12PM 35.9000 -89.6522 240° Southwest 440 506 36,000  Level Memphis Center
06:13PM 35.8383 -89.7833 240° Southwest 440 506 36,000  Level Memphis Center
06:14PM 35.7761 -89.9144 240° Southwest 440 506 36,000  Level Memphis Center
06:15PM 35.6994 -90.0272 230° Southwest 440 506 36,000  Level Memphis Center
06:16PM 35.6017 -90.1350 222° Southwest 429 494 36,000  Level Memphis Center
06:17PM 35.5078 -90.2347 221° Southwest 444 511 36,000  Level Memphis Center
06:18PM 35.4308 -90.3214 223° Southwest 444 511 36,000  Level Memphis Center
06:19PM 35.3411 -90.4156 221° Southwest 433 498 36,000  Level Memphis Center
06:20PM 35.2514 -90.5122 221° Southwest 438 504 36,000  Level Memphis Center
06:21PM 35.1614 -90.6058 220° Southwest 433 498 36,000  Level Memphis Center
06:22PM 35.0694 -90.7022 221° Southwest 438 504 36,000  Level Memphis Center
06:23PM 34.9775 -90.8006 221° Southwest 438 504 36,000  Level Memphis Center
06:24PM 34.8853 -90.8989 221° Southwest 438 504 36,000  Level Memphis Center
06:25PM 34.7908 -90.9944 220° Southwest 444 511 36,000  Level Memphis Center
06:26PM 34.7006 -91.0897 221° Southwest 436 502 36,000  Level Memphis Center
06:27PM 34.6103 -91.1822 220° Southwest 431 496 36,000  Level Memphis Center
06:28PM 34.5136 -91.2872 222° Southwest 436 502 36,000  Level Memphis Center
06:29PM 34.4231 -91.3794 220° Southwest 436 502 36,000  Level Memphis Center
06:30PM 34.3306 -91.4739 220° Southwest 436 502 36,000  Level Memphis Center
06:31PM 34.2400 -91.5656 220° Southwest 441 507 36,000  Level Memphis Center
06:32PM 34.1472 -91.6597 220° Southwest 433 498 36,000  Level Memphis Center
06:33PM 34.0731 -91.7489 225° Southwest 433 498 36,000  Level Memphis Center
06:34PM 33.9825 -91.8375 219° Southwest 433 498 36,000  Level Memphis Center
06:36PM 33.8186 -91.9961 219° Southwest 427 491 36,000  Level Fort Worth Center
06:37PM 33.7308 -92.0889 221° Southwest 421 484 36,000  Level Fort Worth Center
06:38PM 33.6428 -92.1792 220° Southwest 416 479 36,000  Level Fort Worth Center
06:39PM 33.5456 -92.2547 213° Southwest 416 479 36,000  Level Fort Worth Center
06:40PM 33.4258 -92.2867 193° South 421 484 36,000  Level Fort Worth Center
06:41PM 33.3042 -92.3211 193° South 431 496 36,000  Level Fort Worth Center
06:42PM 33.1864 -92.3500 192° South 443 510 36,000  Level Fort Worth Center
06:43PM 33.0689 -92.3817 193° South 443 510 36,000  Level Fort Worth Center
06:44PM 32.9489 -92.4131 192° South 443 510 36,000  Level Fort Worth Center
06:45PM 32.8292 -92.4469 193° South 443 510 36,000 -420 Level Fort Worth Center
06:47PM 32.6217 -92.5044 193° South 444 511 35,000 -420 Descending Houston Center
06:48PM 32.5181 -92.5325 193° South 443 510 35,000  Level Houston Center
06:49PM 32.3758 -92.5703 193° South 439 505 35,000  Level Houston Center
06:50PM 32.2558 -92.6019 193° South 442 509 35,000  Level Houston Center
06:51PM 32.1336 -92.6347 193° South 449 517 35,000  Level Houston Center
06:52PM 32.0136 -92.6675 193° South 444 511 35,000 -60 Level Houston Center
06:53PM 31.9150 -92.7342 210° Southwest 417 480 34,900  Descending Houston Center
06:54PM 31.8311 -92.8158 220° Southwest 396 456 35,000  Climbing Houston Center
06:55PM 31.7444 -92.8978 219° Southwest 400 460 35,000  Level Houston Center
06:56PM 31.6594 -92.9803 220° Southwest 398 458 35,000  Level Houston Center
06:57PM 31.5569 -93.0783 219° Southwest 398 458 35,000  Level Houston Center
06:58PM 31.4717 -93.1606 219° Southwest 400 460 35,000  Level Houston Center
06:59PM 31.3861 -93.2436 220° Southwest 400 460 35,000  Level Houston Center
07:00PM 31.2906 -93.3342 219° Southwest 403 464 35,000  Level Houston Center
07:01PM 31.2125 -93.4081 219° Southwest 402 463 35,000  Level Houston Center
07:02PM 31.1269 -93.4900 219° Southwest 400 460 35,000 -960 Level Houston Center
07:03PM 31.0414 -93.5708 219° Southwest 398 458 33,100 -2,160 Descending Houston Center
07:04PM 30.9408 -93.6672 219° Southwest 393 452 30,600 -2,280 Descending Houston Center
07:05PM 30.8539 -93.7481 219° Southwest 401 461 28,400 -2,220 Descending Houston Center
07:06PM 30.7628 -93.8347 219° Southwest 420 483 26,100 -2,400 Descending Houston Center
07:07PM 30.6700 -93.9219 219° Southwest 432 497 23,500 -2,400 Descending Houston Center
07:08PM 30.5828 -94.0039 219° Southwest 413 475 21,200 -2,400 Descending Houston Center
07:09PM 30.5058 -94.0764 219° Southwest 394 453 19,300 -2,040 Descending Houston Center
07:09PM 30.4978 -94.0833 217° Southwest 399 459 19,100 -2,100 Descending Houston Center
07:10PM 30.4367 -94.1417 219° Southwest 394 453 17,600 -2,640 Descending Houston Center
07:10PM 30.3958 -94.1800 219° Southwest 397 457 16,400 -2,400 Descending Houston Center
07:11PM 30.3481 -94.2211 217° Southwest 390 449 15,200 -2,220 Descending Houston Center
07:11PM 30.3133 -94.2556 221° Southwest 388 447 14,200 -2,040 Descending Houston Center
07:12PM 30.2778 -94.2958 224° Southwest 339 390 13,100 -2,040 Descending Houston Center
07:12PM 30.2561 -94.3367 238° Southwest 347 399 12,100 -1,020 Descending Houston Center
07:13PM 30.2281 -94.3897 239° Southwest 314 361 12,100 -120 Level Houston Center
07:13PM 30.2153 -94.4250 247° West 319 367 12,000 -540 Descending Houston Center
07:14PM 30.1864 -94.4772 237° Southwest 307 353 11,600 -840 Descending Houston Center
07:14PM 30.1739 -94.5092 246° West 302 348 11,200 -1,320 Descending Houston Center
07:15PM 30.1497 -94.5547 238° Southwest 259 298 10,300 -1,260 Descending Houston Center
07:15PM 30.1383 -94.5817 244° Southwest 267 307 9,900 -1,200 Descending Houston Center
07:16PM 30.1167 -94.6264 241° Southwest 258 297 9,100 -1,200 Descending Houston Center
07:16PM 30.1039 -94.6533 241° Southwest 258 297 8,700 -1,200 Descending Houston Center
07:17PM 30.0800 -94.7014 240° Southwest 253 291 7,900 -1,380 Descending Houston Center
07:17PM 30.0631 -94.7389 242° Southwest 255 293 7,300 -1,200 Descending Houston Center
07:18PM 30.0469 -94.7731 241° Southwest 255 293 6,700 -1,080 Descending Houston Center
07:18PM 30.0297 -94.8081 240° Southwest 250 288 6,200 -720 Descending Houston Center
07:19PM 30.0131 -94.8378 237° Southwest 220 253 6,000 -540 Descending Houston Center
07:19PM 30.0006 -94.8703 246° West 227 261 5,700 -720 Descending Houston Center
07:20PM 29.9900 -94.9033 250° West 223 257 5,300 -780 Descending Houston Center
07:20PM 29.9825 -94.9369 256° West 219 252 4,900 -900 Descending Houston Center
07:21PM 29.9794 -94.9700 264° West 207 238 4,400 -840 Descending Houston Center
07:21PM 29.9778 -95.0025 267° West 210 242 4,100 -840 Descending Houston Center
07:22PM 29.9778 -95.0400 270° West 210 242 3,600 -720 Descending Houston Center
07:22PM 29.9778 -95.0686 270° West 208 239 3,400 -540 Descending Houston Center
07:23PM 29.9775 -95.1053 270° West 195 224 3,100 -420 Descending Houston Center
07:23PM 29.9775 -95.1311 270° West 202 232 3,000 -720 Descending Houston Center
07:24PM 29.9767 -95.1656 268° West 180 207 2,400 -1,080 Descending Houston Center
07:24PM 29.9789 -95.1997 274° West 190 219 1,900 -900 Descending Houston Center
07:25PM 29.9778 -95.2211 267° West 178 205 1,500 -720 Descending Houston Center
07:26PM 29.9781 -95.2506 271° West 176 203 1,200 -840 Descending Houston Center
07:26PM 29.9775 -95.2644 267° West 133 153 700 -840 Descending Houston Center
07:27PM 29.9775 -95.2903 270° West 149 171 400 -480 Descending Houston Center